createdAt,value
2022-10-26T00:01:15.747Z,98426.22
2022-10-26T00:06:21.783Z,98421.59
2022-10-26T00:11:25.191Z,98418.47
2022-10-26T00:16:29.149Z,98411.03
2022-10-26T00:21:33.255Z,98409.09
2022-10-26T00:26:36.335Z,98402.97
2022-10-26T00:31:39.499Z,98402.50
2022-10-26T00:36:43.545Z,98394.81
2022-10-26T00:41:46.263Z,98398.91
2022-10-26T00:46:49.038Z,98403.88
2022-10-26T00:51:54.674Z,98407.97
2022-10-26T00:56:57.956Z,98426.63
2022-10-26T01:02:00.769Z,98442.78
2022-10-26T01:07:06.923Z,98425.81
2022-10-26T01:12:09.657Z,98425.59
2022-10-26T01:17:27.820Z,98425.44
2022-10-26T01:22:39.650Z,98407.50
2022-10-26T01:27:46.358Z,98405.94
2022-10-26T01:33:12.047Z,98413.94
2022-10-26T01:38:23.514Z,98409.59
2022-10-26T01:43:29.471Z,98410.69
2022-10-26T01:48:35.311Z,98397.38
2022-10-26T01:53:45.374Z,98381.00
2022-10-26T01:59:13.187Z,98368.22
2022-10-26T02:04:31.621Z,98378.06
2022-10-26T02:09:45.630Z,98394.75
2022-10-26T02:14:52.285Z,98394.06
2022-10-26T02:20:01.271Z,98394.22
2022-10-26T02:25:09.947Z,98392.66
2022-10-26T02:30:14.383Z,98388.19
2022-10-26T02:35:22.204Z,98379.06
2022-10-26T02:40:28.162Z,98369.38
2022-10-26T02:45:35.423Z,98360.66
2022-10-26T02:50:44.109Z,98365.28
2022-10-26T02:55:50.827Z,98364.91
2022-10-26T03:00:54.521Z,98369.84
2022-10-26T03:05:58.627Z,98359.63
2022-10-26T03:11:01.333Z,98369.31
2022-10-26T03:16:04.013Z,98369.88
2022-10-26T03:21:08.249Z,98365.13
2022-10-26T03:26:10.986Z,98350.50
2022-10-26T03:31:13.929Z,98349.94
2022-10-26T03:36:18.002Z,98362.28
2022-10-26T03:41:22.467Z,98365.50
2022-10-26T03:46:30.364Z,98357.41
2022-10-26T03:51:35.466Z,98351.78
2022-10-26T03:56:38.212Z,98343.53
2022-10-26T04:01:41.109Z,98335.41
2022-10-26T04:06:47.934Z,98328.94
2022-10-26T04:11:50.663Z,98341.16
2022-10-26T04:16:53.379Z,98338.34
2022-10-26T04:21:57.427Z,98332.03
2022-10-26T04:27:00.155Z,98344.25
2022-10-26T04:32:02.943Z,98337.09
2022-10-26T04:37:07.014Z,98345.78
2022-10-26T04:42:09.717Z,98347.47
2022-10-26T04:47:13.362Z,98329.56
2022-10-26T04:52:17.473Z,98324.22
2022-10-26T05:02:46.764Z,98324.78
2022-10-26T05:07:56.760Z,98326.59
2022-10-26T05:13:00.849Z,98323.09
2022-10-26T05:18:05.430Z,98332.94
2022-10-26T05:23:13.809Z,98322.09
2022-10-26T05:28:18.830Z,98322.09
2022-10-26T05:33:21.860Z,98331.94
2022-10-26T05:43:30.284Z,98330.69
2022-10-26T05:48:33.417Z,98324.66
2022-10-26T05:53:37.474Z,98324.66
2022-10-26T05:58:40.811Z,98327.16
2022-10-26T06:03:59.019Z,98320.84
2022-10-26T06:09:03.717Z,98340.94
2022-10-26T06:14:07.435Z,98340.81
2022-10-26T06:19:23.961Z,98340.66
2022-10-26T06:24:40.877Z,98350.63
2022-10-26T06:29:51.602Z,98362.59
2022-10-26T06:35:07.325Z,98353.34
2022-10-26T06:40:15.586Z,98358.81
2022-10-26T06:45:19.461Z,98375.25
2022-10-26T06:50:37.400Z,98380.91
2022-10-26T06:55:44.685Z,98389.31
2022-10-26T07:00:55.437Z,98396.94
2022-10-26T07:05:58.321Z,98394.97
2022-10-26T07:11:04.332Z,98419.75
2022-10-26T07:16:07.503Z,98414.28
2022-10-26T07:21:10.502Z,98416.78
2022-10-26T07:26:14.670Z,98430.56
2022-10-26T07:31:17.531Z,98421.72
2022-10-26T07:36:20.516Z,98434.41
2022-10-26T07:41:24.605Z,98439.19
2022-10-26T07:46:28.741Z,98445.75
2022-10-26T07:51:31.427Z,98450.66
2022-10-26T07:56:35.633Z,98452.19
2022-10-26T08:01:38.657Z,98462.63
2022-10-26T08:06:41.453Z,98466.78
2022-10-26T08:11:45.555Z,98468.56
2022-10-26T08:16:52.698Z,98476.78
2022-10-26T08:21:55.681Z,98464.47
2022-10-26T08:26:59.757Z,98467.34
2022-10-26T08:32:02.577Z,98469.94
2022-10-26T08:37:05.314Z,98460.69
2022-10-26T08:42:15.556Z,98465.03
2022-10-26T08:47:21.866Z,98474.47
2022-10-26T08:52:30.783Z,98474.53
2022-10-26T08:57:39.549Z,98473.63
2022-10-26T09:02:42.482Z,98473.41
2022-10-26T09:07:55.849Z,98477.84
2022-10-26T09:13:07.545Z,98479.84
2022-10-26T09:18:24.556Z,98481.59
2022-10-26T09:23:40.903Z,98495.06
2022-10-26T09:28:49.062Z,98509.84
2022-10-26T09:33:54.248Z,98512.69
2022-10-26T09:39:03.521Z,98511.75
2022-10-26T09:44:12.820Z,98518.25
2022-10-26T09:49:17.626Z,98520.97
2022-10-26T09:54:22.553Z,98516.78
2022-10-26T09:59:27.635Z,98519.22
2022-10-26T10:04:33.758Z,98535.13
2022-10-26T10:09:36.503Z,98539.16
2022-10-26T10:14:56.381Z,98550.91
2022-10-26T10:20:12.499Z,98554.44
2022-10-26T10:25:26.217Z,98560.19
2022-10-26T10:30:32.772Z,98567.38
2022-10-26T10:35:35.841Z,98569.06
2022-10-26T10:40:38.857Z,98590.81
2022-10-26T10:45:49.051Z,98584.06
2022-10-26T10:50:54.470Z,98589.53
2022-10-26T10:56:11.467Z,98586.38
2022-10-26T11:01:22.322Z,98597.53
2022-10-26T11:06:28.787Z,98593.75
2022-10-26T11:11:35.880Z,98597.31
2022-10-26T11:16:44.296Z,98603.16
2022-10-26T11:21:51.953Z,98588.88
2022-10-26T11:27:00.920Z,98598.44
2022-10-26T11:32:14.989Z,98605.25
2022-10-26T11:37:24.829Z,98601.63
2022-10-26T11:42:31.631Z,98606.53
2022-10-26T11:47:41.492Z,98612.97
2022-10-26T11:52:48.775Z,98617.72
2022-10-26T11:57:55.010Z,98609.22
2022-10-26T12:03:05.727Z,98611.50
2022-10-26T12:08:15.188Z,98615.41
2022-10-26T12:13:24.637Z,98622.91
2022-10-26T12:18:54.440Z,98622.34
2022-10-26T12:23:59.656Z,98616.09
2022-10-26T12:29:29.513Z,98632.38
2022-10-26T12:35:05.748Z,98624.75
2022-10-26T12:40:40.280Z,98628.53
2022-10-26T12:45:44.179Z,98631.38
2022-10-26T12:50:48.774Z,98635.38
2022-10-26T12:56:18.118Z,98643.03
2022-10-26T13:01:59.219Z,98645.78
2022-10-26T13:07:20.729Z,98655.19
2022-10-26T13:12:23.978Z,98653.13
2022-10-26T13:17:29.089Z,98660.44
2022-10-26T13:22:34.071Z,98671.00
2022-10-26T13:27:45.338Z,98664.44
2022-10-26T13:32:56.572Z,98669.09
2022-10-26T13:38:08.358Z,98675.00
2022-10-26T13:43:20.948Z,98679.41
2022-10-26T13:48:32.575Z,98675.66
2022-10-26T13:53:43.545Z,98676.41
2022-10-26T13:58:51.135Z,98670.63
2022-10-26T14:03:53.945Z,98681.72
2022-10-26T14:09:01.632Z,98690.13
2022-10-26T14:14:05.772Z,98683.97
2022-10-26T14:19:16.319Z,98691.66
2022-10-26T14:24:45.271Z,98697.44
2022-10-26T14:30:16.803Z,98696.97
2022-10-26T14:35:13.516Z,98721.25
2022-10-26T14:40:20.092Z,98719.53
2022-10-26T14:45:49.589Z,98718.44
2022-10-26T14:51:03.567Z,98718.44
2022-10-26T14:56:25.707Z,98719.47
2022-10-26T15:01:33.254Z,98728.59
2022-10-26T15:06:43.468Z,98740.13
2022-10-26T15:11:47.772Z,98741.28
2022-10-26T15:16:54.069Z,98743.56
2022-10-26T15:21:57.148Z,98748.53
2022-10-26T15:27:02.566Z,98752.66
2022-10-26T15:32:19.808Z,98761.34
2022-10-26T15:37:22.803Z,98768.53
2022-10-26T15:42:27.056Z,98775.34
2022-10-26T15:47:34.556Z,98781.03
2022-10-26T15:52:37.337Z,98784.75
2022-10-26T15:57:41.938Z,98786.34
2022-10-26T16:02:46.255Z,98788.09
2022-10-26T16:07:49.998Z,98793.84
2022-10-26T16:12:54.381Z,98802.63
2022-10-26T16:17:57.137Z,98802.97
2022-10-26T16:23:06.159Z,98805.00
2022-10-26T16:28:12.561Z,98820.00
2022-10-26T16:33:15.756Z,98829.03
2022-10-26T16:38:18.590Z,98829.66
2022-10-26T16:43:22.724Z,98837.97
2022-10-26T16:48:25.765Z,98839.06
2022-10-26T16:53:28.489Z,98856.63
2022-10-26T16:58:36.784Z,98854.16
2022-10-26T17:03:40.809Z,98863.09
2022-10-26T17:08:43.941Z,98865.56
2022-10-26T17:13:48.782Z,98880.94
2022-10-26T17:18:52.522Z,98894.50
2022-10-26T17:23:55.629Z,98893.31
2022-10-26T17:29:00.679Z,98907.31
2022-10-26T17:34:03.845Z,98912.31
2022-10-26T17:39:06.590Z,98920.13
2022-10-26T17:44:10.915Z,98933.88
2022-10-26T17:49:13.884Z,98944.91
2022-10-26T17:59:25.933Z,98945.38
2022-10-26T18:04:28.805Z,98952.28
2022-10-26T18:09:31.629Z,98955.13
2022-10-26T18:14:35.729Z,98965.16
2022-10-26T18:19:38.593Z,98971.34
2022-10-26T18:24:41.409Z,98979.56
2022-10-26T18:29:45.604Z,98981.22
2022-10-26T18:34:48.348Z,98991.69
2022-10-26T18:39:51.153Z,98995.06
2022-10-26T18:45:00.468Z,99001.28
2022-10-26T18:50:03.436Z,99002.84
2022-10-26T18:55:07.054Z,99004.81
2022-10-26T19:00:12.697Z,99015.94
2022-10-26T19:05:15.554Z,99026.13
2022-10-26T19:10:18.660Z,99043.84
2022-10-26T19:15:22.780Z,99046.19
2022-10-26T19:20:25.585Z,99061.22
2022-10-26T19:25:28.301Z,99053.94
2022-10-26T19:30:33.576Z,99056.28
2022-10-26T19:40:43.980Z,99070.41
2022-10-26T19:45:48.192Z,99075.06
2022-10-26T19:50:52.733Z,99079.03
2022-10-26T19:55:57.375Z,99081.28
2022-10-26T20:01:03.164Z,99096.44
2022-10-26T20:06:08.451Z,99090.00
2022-10-26T20:11:15.460Z,99091.03
2022-10-26T20:16:20.085Z,99090.56
2022-10-26T20:21:23.874Z,99105.16
2022-10-26T20:26:28.541Z,99098.22
2022-10-26T20:31:32.991Z,99101.81
2022-10-26T20:36:35.862Z,99105.34
2022-10-26T20:41:42.819Z,99112.16
2022-10-26T20:46:48.643Z,99115.06
2022-10-26T20:52:20.133Z,99122.44
2022-10-26T20:57:29.244Z,99130.44
2022-10-26T21:02:34.201Z,99129.97
2022-10-26T21:07:37.336Z,99126.56
2022-10-26T21:12:41.072Z,99133.38
2022-10-26T21:17:45.154Z,99142.69
2022-10-26T21:22:47.921Z,99142.81
2022-10-26T21:27:55.727Z,99150.22
2022-10-26T21:32:59.862Z,99154.94
2022-10-26T21:38:02.577Z,99152.28
2022-10-26T21:43:05.258Z,99155.75
2022-10-26T21:48:09.342Z,99163.50
2022-10-26T21:53:12.264Z,99160.47
2022-10-26T21:58:16.962Z,99157.53
2022-10-26T22:03:21.095Z,99162.28
2022-10-26T22:08:23.838Z,99162.59
2022-10-26T22:13:28.674Z,99159.78
2022-10-26T22:18:35.729Z,99173.56
2022-10-26T22:23:39.944Z,99175.75
2022-10-26T22:28:44.263Z,99183.84
2022-10-26T22:33:52.607Z,99180.06
2022-10-26T22:38:56.593Z,99193.97
2022-10-26T22:43:59.304Z,99196.56
2022-10-26T22:49:03.669Z,99194.00
2022-10-26T22:54:06.635Z,99189.63
2022-10-26T22:59:09.349Z,99184.19
2022-10-26T23:04:13.980Z,99192.44
2022-10-26T23:09:16.995Z,99183.38
2022-10-26T23:14:19.707Z,99185.09
2022-10-26T23:19:23.760Z,99190.22
2022-10-26T23:24:26.446Z,99188.19
2022-10-26T23:29:29.264Z,99194.38
2022-10-26T23:34:33.467Z,99195.91
2022-10-26T23:39:36.174Z,99214.03
2022-10-26T23:44:38.880Z,99211.44
2022-10-26T23:49:42.972Z,99216.69
2022-10-26T23:54:45.720Z,99212.41
2022-10-26T23:59:48.539Z,99204.88
